createdAt,value
2022-11-28T00:04:03.645Z,11.2
2022-11-28T00:09:10.494Z,11.2
2022-11-28T00:14:17.112Z,11.2
2022-11-28T00:19:25.109Z,11.2
2022-11-28T00:24:31.980Z,11.2
2022-11-28T00:29:38.592Z,11.2
2022-11-28T00:34:45.322Z,11.2
2022-11-28T00:39:52.179Z,11.2
2022-11-28T00:44:58.770Z,11.2
2022-11-28T00:50:05.504Z,11.2
2022-11-28T00:55:12.442Z,11.2
2022-11-28T01:00:19.129Z,11.2
2022-11-28T01:05:25.730Z,11.2
2022-11-28T01:10:33.808Z,11.2
2022-11-28T01:15:40.433Z,11.2
2022-11-28T01:20:47.294Z,11.2
2022-11-28T01:25:54.033Z,11.2
2022-11-28T01:31:00.698Z,11.2
2022-11-28T01:36:07.391Z,11.2
2022-11-28T01:41:14.287Z,11.2
2022-11-28T01:46:20.949Z,11.2
2022-11-28T01:51:27.602Z,11.2
2022-11-28T01:56:35.695Z,11.2
2022-11-28T02:01:42.453Z,11.2
2022-11-28T02:06:49.151Z,11.2
2022-11-28T02:11:55.937Z,11.2
2022-11-28T02:17:02.575Z,11.2
2022-11-28T02:22:09.300Z,11.2
2022-11-28T02:27:16.143Z,11.2
2022-11-28T02:32:22.777Z,11.2
2022-11-28T02:37:29.498Z,11.2
2022-11-28T02:42:36.367Z,11.2
2022-11-28T02:47:42.976Z,11.2
2022-11-28T02:52:49.722Z,11.2
2022-11-28T02:57:56.576Z,11.2
2022-11-28T03:03:03.185Z,11.2
2022-11-28T03:08:09.937Z,11.2
2022-11-28T03:13:16.770Z,11.2
2022-11-28T03:18:23.412Z,11.2
2022-11-28T03:23:30.115Z,11.2
2022-11-28T03:28:42.060Z,11.2
2022-11-28T03:33:43.607Z,11.2
2022-11-28T03:38:50.336Z,11.2
2022-11-28T03:43:57.188Z,11.2
2022-11-28T03:49:03.817Z,11.2
2022-11-28T03:54:10.531Z,11.2
2022-11-28T03:59:17.437Z,11.2
2022-11-28T04:04:24.030Z,11.2
2022-11-28T04:09:30.732Z,11.2
2022-11-28T04:14:37.625Z,11.2
2022-11-28T04:19:44.243Z,11.2
2022-11-28T04:24:50.969Z,11.2
2022-11-28T04:29:57.816Z,11.2
2022-11-28T04:35:04.442Z,11.2
2022-11-28T04:40:11.190Z,11.2
2022-11-28T04:45:18.293Z,11.2
2022-11-28T04:50:24.642Z,11.2
2022-11-28T04:55:32.604Z,11.2
2022-11-28T05:00:39.553Z,11.1
2022-11-28T05:05:47.477Z,11.2
2022-11-28T05:10:54.073Z,11.2
2022-11-28T05:16:02.195Z,11.2
2022-11-28T05:21:08.769Z,11.3
2022-11-28T05:26:16.749Z,11.3
2022-11-28T05:31:23.679Z,11.3
2022-11-28T05:36:31.455Z,11.3
2022-11-28T05:41:39.438Z,11.3
2022-11-28T05:46:46.290Z,11.3
2022-11-28T05:51:54.171Z,11.3
2022-11-28T05:57:00.895Z,11.3
2022-11-28T06:02:07.834Z,11.1
2022-11-28T06:07:14.417Z,11.3
2022-11-28T06:12:21.099Z,11.3
2022-11-28T06:17:27.980Z,11.3
2022-11-28T06:22:34.557Z,11.3
2022-11-28T06:27:41.300Z,11.3
2022-11-28T06:32:48.186Z,11.3
2022-11-28T06:37:54.781Z,11.3
2022-11-28T06:43:01.537Z,11.3
2022-11-28T06:48:08.391Z,11.3
2022-11-28T06:53:14.985Z,11.3
2022-11-28T06:58:21.732Z,11.3
2022-11-28T07:03:28.595Z,11.3
2022-11-28T07:08:35.221Z,11.3
2022-11-28T07:13:41.924Z,11.3
2022-11-28T07:18:48.808Z,11.2
2022-11-28T07:23:55.423Z,11.2
2022-11-28T07:29:02.156Z,11.2
2022-11-28T07:34:08.997Z,11.2
2022-11-28T07:39:15.633Z,11.2
2022-11-28T07:44:23.599Z,11.2
2022-11-28T07:49:30.388Z,11
2022-11-28T07:54:37.079Z,11
2022-11-28T07:59:44.471Z,11
2022-11-28T08:04:54.939Z,11
2022-11-28T08:09:57.279Z,11.2
2022-11-28T08:15:03.993Z,11
2022-11-28T08:20:10.784Z,11
2022-11-28T08:25:17.500Z,11.2
2022-11-28T08:30:24.281Z,11.2
2022-11-28T08:35:30.968Z,11.2
2022-11-28T08:40:37.699Z,11.2
2022-11-28T08:45:45.740Z,11.2
2022-11-28T08:50:52.445Z,11.2
2022-11-28T08:55:59.150Z,11.2
2022-11-28T09:01:05.920Z,11.2
2022-11-28T09:06:12.641Z,11.2
2022-11-28T09:11:19.355Z,11.2
2022-11-28T09:16:26.146Z,11.2
2022-11-28T09:21:34.099Z,11.2
2022-11-28T09:26:40.804Z,11.2
2022-11-28T09:31:47.874Z,11.2
2022-11-28T09:36:54.306Z,11.2
2022-11-28T09:42:01.028Z,11.2
2022-11-28T09:47:07.738Z,11.2
2022-11-28T09:52:14.579Z,11.2
2022-11-28T09:57:21.246Z,11.2
2022-11-28T10:02:28.328Z,11.2
2022-11-28T10:07:34.801Z,11.2
2022-11-28T10:12:41.457Z,11.2
2022-11-28T10:17:48.210Z,11.2
2022-11-28T10:22:54.960Z,11.2
2022-11-28T10:28:01.659Z,11.2
2022-11-28T10:33:08.407Z,11.2
2022-11-28T10:38:15.184Z,11.2
2022-11-28T10:43:21.911Z,11.2
2022-11-28T10:48:44.033Z,11.2
2022-11-28T10:53:35.391Z,11.2
2022-11-28T10:58:42.089Z,11.1
2022-11-28T11:03:48.812Z,11.1
2022-11-28T11:08:55.580Z,11.1
2022-11-28T11:14:02.285Z,11.1
2022-11-28T11:19:09.039Z,11.2
2022-11-28T11:24:15.772Z,11.4
2022-11-28T11:29:22.494Z,11.2
2022-11-28T11:34:29.230Z,11.2
2022-11-28T11:39:35.999Z,11.2
2022-11-28T11:44:42.724Z,11.1
2022-11-28T11:49:49.430Z,11.1
2022-11-28T11:54:56.341Z,11.1
2022-11-28T12:00:02.943Z,11.1
2022-11-28T12:05:10.904Z,11.1
2022-11-28T12:10:17.657Z,11.1
2022-11-28T12:15:24.391Z,11.1
2022-11-28T12:20:31.117Z,11.1
2022-11-28T12:25:39.080Z,11.1
2022-11-28T12:30:47.039Z,11.1
2022-11-28T12:35:53.762Z,11.1
2022-11-28T12:41:01.779Z,11.1
2022-11-28T12:46:09.747Z,11.1
2022-11-28T12:51:16.463Z,11.1
2022-11-28T12:56:23.215Z,11.1
2022-11-28T13:01:31.231Z,11.1
2022-11-28T13:06:38.264Z,11.1
2022-11-28T13:11:44.697Z,11.1
2022-11-28T13:16:51.491Z,10.9
2022-11-28T13:21:58.106Z,10.9
2022-11-28T13:27:05.020Z,10.9
2022-11-28T13:32:11.604Z,10.9
2022-11-28T13:42:59.509Z,10.9
2022-11-28T13:47:33.038Z,10.9
2022-11-28T13:52:39.768Z,10.9
2022-11-28T13:57:46.552Z,10.9
2022-11-28T14:02:53.352Z,10.9
2022-11-28T14:08:01.327Z,10.9
2022-11-28T14:13:09.785Z,10.9
2022-11-28T14:18:47.813Z,10.9
2022-11-28T14:23:21.468Z,10.8
2022-11-28T14:28:28.239Z,10.6
2022-11-28T14:33:36.169Z,10.6
2022-11-28T14:38:42.910Z,10.6
2022-11-28T14:43:49.675Z,10.6
2022-11-28T14:48:56.415Z,10.6
2022-11-28T14:54:03.143Z,10.6
2022-11-28T14:59:10.077Z,10.6
2022-11-28T15:04:16.611Z,10.6
2022-11-28T15:09:23.328Z,10.6
2022-11-28T15:14:30.093Z,10.6
2022-11-28T15:19:36.795Z,10.6
2022-11-28T15:24:43.911Z,10.6
2022-11-28T15:29:50.330Z,10.6
2022-11-28T15:34:58.246Z,10.6
2022-11-28T15:40:04.996Z,10.6
2022-11-28T15:45:11.785Z,10.6
2022-11-28T15:50:18.459Z,10.6
2022-11-28T15:55:25.178Z,10.6
2022-11-28T16:00:31.984Z,10.6
2022-11-28T16:05:38.688Z,10.6
2022-11-28T16:10:45.382Z,10.6
2022-11-28T16:15:52.239Z,10.6
2022-11-28T16:20:58.893Z,10.6
2022-11-28T16:26:05.596Z,10.4
2022-11-28T16:31:12.468Z,10.6
2022-11-28T16:36:19.083Z,10.6
2022-11-28T16:41:25.831Z,10.6
2022-11-28T16:46:32.588Z,10.6
2022-11-28T16:51:39.279Z,10.4
2022-11-28T16:56:46.035Z,10.4
2022-11-28T17:01:52.885Z,10.4
2022-11-28T17:06:59.588Z,10.4
2022-11-28T17:12:06.253Z,10.4
2022-11-28T17:17:13.007Z,10.4
2022-11-28T17:22:19.726Z,10.4
2022-11-28T17:27:26.444Z,10.6
2022-11-28T17:32:33.220Z,10.6
2022-11-28T17:37:39.946Z,10.4
2022-11-28T17:42:46.687Z,10.4
2022-11-28T17:47:54.694Z,10.4
2022-11-28T17:53:01.395Z,10.4
2022-11-28T17:58:08.122Z,10.4
2022-11-28T18:03:14.892Z,10.6
2022-11-28T18:08:22.079Z,10.6
2022-11-28T18:13:29.567Z,10.6
2022-11-28T18:18:36.341Z,10.6
2022-11-28T18:23:43.056Z,10.4
2022-11-28T18:28:49.798Z,10.4
2022-11-28T18:34:01.620Z,10.4
2022-11-28T18:39:03.280Z,10.6
2022-11-28T18:44:10.025Z,10.6
2022-11-28T18:49:18.017Z,10.6
2022-11-28T18:54:24.738Z,10.6
2022-11-28T18:59:31.466Z,10.6
2022-11-28T19:04:38.284Z,10.6
2022-11-28T19:09:45.292Z,10.6
2022-11-28T19:14:51.713Z,10.6
2022-11-28T19:19:58.491Z,10.6
2022-11-28T19:25:05.178Z,10.6
2022-11-28T19:30:11.960Z,10.6
2022-11-28T19:35:18.746Z,10.6
2022-11-28T19:40:25.408Z,10.6
2022-11-28T19:45:32.187Z,10.6
2022-11-28T19:50:38.886Z,10.6
2022-11-28T19:55:45.586Z,10.6
2022-11-28T20:00:53.644Z,10.6
2022-11-28T20:06:00.344Z,10.6
2022-11-28T20:11:07.055Z,10.6
2022-11-28T20:16:15.057Z,10.6
2022-11-28T20:21:21.786Z,10.6
2022-11-28T20:26:29.713Z,10.6
2022-11-28T20:31:36.575Z,10.5
2022-11-28T20:36:44.463Z,10.5
2022-11-28T20:41:51.181Z,10.6
2022-11-28T20:46:57.903Z,10.6
2022-11-28T20:52:04.672Z,10.6
2022-11-28T20:57:21.316Z,10.6
2022-11-28T21:02:18.175Z,10.6
2022-11-28T21:07:26.175Z,10.6
2022-11-28T21:12:32.853Z,10.5
2022-11-28T21:17:39.579Z,10.5
2022-11-28T21:22:46.324Z,10.5
2022-11-28T21:27:53.050Z,10.5
2022-11-28T21:33:01.065Z,10.6
2022-11-28T21:38:07.795Z,10.6
2022-11-28T21:43:14.502Z,10.6
2022-11-28T21:48:21.226Z,10.6
2022-11-28T21:53:28.000Z,10.5
2022-11-28T21:58:34.710Z,10.5
2022-11-28T22:03:41.458Z,10.5
2022-11-28T22:08:49.443Z,10.5
2022-11-28T22:13:56.153Z,10.5
2022-11-28T22:19:02.901Z,10.5
2022-11-28T22:24:09.668Z,10.6
2022-11-28T22:29:16.403Z,10.6
2022-11-28T22:34:24.359Z,10.5
2022-11-28T22:39:31.106Z,10.5
2022-11-28T22:44:37.836Z,10.5
2022-11-28T22:49:44.556Z,10.5
2022-11-28T22:54:51.334Z,10.5
2022-11-28T22:59:58.064Z,10.5
2022-11-28T23:05:06.018Z,10.5
2022-11-28T23:10:12.876Z,10.5
2022-11-28T23:15:19.537Z,10.5
2022-11-28T23:20:38.469Z,10.5
2022-11-28T23:25:46.450Z,10.5
2022-11-28T23:30:54.334Z,10.5
2022-11-28T23:36:02.285Z,10.5
2022-11-28T23:41:10.209Z,10.5
2022-11-28T23:46:18.096Z,10.5
2022-11-28T23:51:26.029Z,10.5
2022-11-28T23:56:33.999Z,10.5
